sensor_id;sensor_type;location;lat;lon;timestamp;pressure;altitude;pressure_sealevel;temperature;humidity
51926;BME280;37952;51.938;15.480;2023-11-21T00:02:37;98930.78;;;8.19;86.62
51926;BME280;37952;51.938;15.480;2023-11-21T00:05:41;98932.35;;;8.19;86.66
51926;BME280;37952;51.938;15.480;2023-11-21T00:08:43;98937.77;;;8.19;86.75
51926;BME280;37952;51.938;15.480;2023-11-21T00:11:44;98935.84;;;8.20;86.76
51926;BME280;37952;51.938;15.480;2023-11-21T00:14:46;98943.64;;;8.18;86.66
51926;BME280;37952;51.938;15.480;2023-11-21T00:17:48;98941.96;;;8.15;86.60
51926;BME280;37952;51.938;15.480;2023-11-21T00:20:50;98944.45;;;8.14;86.67
51926;BME280;37952;51.938;15.480;2023-11-21T00:23:52;98945.77;;;8.13;86.63
51926;BME280;37952;51.938;15.480;2023-11-21T00:26:54;98941.77;;;8.12;86.63
51926;BME280;37952;51.938;15.480;2023-11-21T00:29:55;98943.11;;;8.10;86.50
51926;BME280;37952;51.938;15.480;2023-11-21T00:32:57;98942.63;;;8.07;86.50
51926;BME280;37952;51.938;15.480;2023-11-21T00:35:58;98946.73;;;8.06;86.60
51926;BME280;37952;51.938;15.480;2023-11-21T00:39:00;98948.73;;;8.07;86.49
51926;BME280;37952;51.938;15.480;2023-11-21T00:42:03;98951.10;;;8.03;86.62
51926;BME280;37952;51.938;15.480;2023-11-21T00:45:07;98959.58;;;8.05;86.58
51926;BME280;37952;51.938;15.480;2023-11-21T00:48:08;98958.72;;;8.08;86.61
51926;BME280;37952;51.938;15.480;2023-11-21T00:51:10;98954.75;;;8.07;86.44
51926;BME280;37952;51.938;15.480;2023-11-21T00:54:11;98954.04;;;8.07;86.54
51926;BME280;37952;51.938;15.480;2023-11-21T00:57:13;98956.69;;;8.06;86.56
51926;BME280;37952;51.938;15.480;2023-11-21T01:00:15;98955.27;;;8.04;86.56
51926;BME280;37952;51.938;15.480;2023-11-21T01:03:19;98957.45;;;8.06;86.45
51926;BME280;37952;51.938;15.480;2023-11-21T01:06:21;98952.89;;;8.03;86.33
51926;BME280;37952;51.938;15.480;2023-11-21T01:09:23;98955.48;;;7.97;86.46
51926;BME280;37952;51.938;15.480;2023-11-21T01:12:25;98961.33;;;7.96;86.52
51926;BME280;37952;51.938;15.480;2023-11-21T01:15:27;98958.52;;;8.00;86.35
51926;BME280;37952;51.938;15.480;2023-11-21T01:18:29;98961.98;;;8.01;86.45
51926;BME280;37952;51.938;15.480;2023-11-21T01:21:31;98965.66;;;8.00;86.52
51926;BME280;37952;51.938;15.480;2023-11-21T01:24:33;98964.84;;;8.00;86.25
51926;BME280;37952;51.938;15.480;2023-11-21T01:27:34;98966.59;;;7.99;86.44
51926;BME280;37952;51.938;15.480;2023-11-21T01:30:36;98966.43;;;7.99;86.52
51926;BME280;37952;51.938;15.480;2023-11-21T01:33:38;98965.49;;;8.03;86.48
51926;BME280;37952;51.938;15.480;2023-11-21T01:36:40;98966.70;;;8.04;86.38
51926;BME280;37952;51.938;15.480;2023-11-21T01:39:41;98968.95;;;8.01;86.36
51926;BME280;37952;51.938;15.480;2023-11-21T01:42:43;98969.53;;;8.00;86.33
51926;BME280;37952;51.938;15.480;2023-11-21T01:45:44;98967.76;;;7.98;86.28
51926;BME280;37952;51.938;15.480;2023-11-21T01:48:50;98979.33;;;7.98;86.40
51926;BME280;37952;51.938;15.480;2023-11-21T01:51:51;98976.19;;;7.95;86.44
51926;BME280;37952;51.938;15.480;2023-11-21T01:54:53;98973.28;;;7.90;86.40
51926;BME280;37952;51.938;15.480;2023-11-21T01:57:56;98974.71;;;7.90;86.46
51926;BME280;37952;51.938;15.480;2023-11-21T02:01:00;98980.53;;;7.87;86.62
51926;BME280;37952;51.938;15.480;2023-11-21T02:04:02;98984.90;;;7.87;86.64
51926;BME280;37952;51.938;15.480;2023-11-21T02:07:04;98985.67;;;7.89;86.79
51926;BME280;37952;51.938;15.480;2023-11-21T02:10:09;98990.05;;;7.89;86.73
51926;BME280;37952;51.938;15.480;2023-11-21T02:13:11;98999.70;;;7.86;86.80
51926;BME280;37952;51.938;15.480;2023-11-21T02:16:12;98995.55;;;7.83;86.70
51926;BME280;37952;51.938;15.480;2023-11-21T02:19:18;98993.63;;;7.82;86.73
51926;BME280;37952;51.938;15.480;2023-11-21T02:22:31;98997.71;;;7.81;86.75
51926;BME280;37952;51.938;15.480;2023-11-21T02:25:37;98994.86;;;7.76;86.80
51926;BME280;37952;51.938;15.480;2023-11-21T02:28:38;98999.00;;;7.75;86.80
51926;BME280;37952;51.938;15.480;2023-11-21T02:31:40;98999.09;;;7.76;86.77
51926;BME280;37952;51.938;15.480;2023-11-21T02:34:49;98993.17;;;7.79;86.77
51926;BME280;37952;51.938;15.480;2023-11-21T02:37:52;98991.14;;;7.80;86.77
51926;BME280;37952;51.938;15.480;2023-11-21T02:40:54;98991.92;;;7.81;86.74
51926;BME280;37952;51.938;15.480;2023-11-21T02:43:55;98993.98;;;7.88;86.68
51926;BME280;37952;51.938;15.480;2023-11-21T02:46:57;99001.11;;;7.92;86.66
51926;BME280;37952;51.938;15.480;2023-11-21T02:49:59;98996.77;;;7.91;86.73
51926;BME280;37952;51.938;15.480;2023-11-21T02:53:01;98997.52;;;7.93;86.68
51926;BME280;37952;51.938;15.480;2023-11-21T02:56:02;98993.73;;;7.89;86.56
51926;BME280;37952;51.938;15.480;2023-11-21T02:59:04;98991.08;;;7.90;86.64
51926;BME280;37952;51.938;15.480;2023-11-21T03:02:06;98992.02;;;7.91;86.58
51926;BME280;37952;51.938;15.480;2023-11-21T03:05:10;98994.39;;;7.93;86.52
51926;BME280;37952;51.938;15.480;2023-11-21T03:08:12;98997.11;;;7.94;86.48
51926;BME280;37952;51.938;15.480;2023-11-21T03:11:14;98994.06;;;7.89;86.43
51926;BME280;37952;51.938;15.480;2023-11-21T03:14:15;98993.58;;;7.89;86.54
51926;BME280;37952;51.938;15.480;2023-11-21T03:17:17;98993.58;;;7.86;86.40
51926;BME280;37952;51.938;15.480;2023-11-21T03:20:19;98994.33;;;7.85;86.40
51926;BME280;37952;51.938;15.480;2023-11-21T03:23:20;99000.60;;;7.89;86.42
51926;BME280;37952;51.938;15.480;2023-11-21T03:26:22;98999.89;;;7.92;86.41
51926;BME280;37952;51.938;15.480;2023-11-21T03:29:23;99005.94;;;7.93;86.49
51926;BME280;37952;51.938;15.480;2023-11-21T03:32:25;99008.77;;;7.96;86.35
51926;BME280;37952;51.938;15.480;2023-11-21T03:35:26;99012.29;;;7.95;86.37
51926;BME280;37952;51.938;15.480;2023-11-21T03:38:29;99011.83;;;7.95;86.43
51926;BME280;37952;51.938;15.480;2023-11-21T03:41:30;99015.35;;;7.97;86.51
51926;BME280;37952;51.938;15.480;2023-11-21T03:44:32;99015.80;;;7.98;86.38
51926;BME280;37952;51.938;15.480;2023-11-21T03:47:34;99011.58;;;7.99;86.43
51926;BME280;37952;51.938;15.480;2023-11-21T03:50:35;99011.55;;;7.99;86.29
51926;BME280;37952;51.938;15.480;2023-11-21T03:53:37;99010.98;;;8.03;86.42
51926;BME280;37952;51.938;15.480;2023-11-21T03:56:38;99012.04;;;8.08;86.35
51926;BME280;37952;51.938;15.480;2023-11-21T03:59:40;99012.03;;;8.08;86.35
51926;BME280;37952;51.938;15.480;2023-11-21T04:02:42;99010.22;;;8.04;86.22
51926;BME280;37952;51.938;15.480;2023-11-21T04:05:45;99014.20;;;8.02;86.32
51926;BME280;37952;51.938;15.480;2023-11-21T04:08:47;99013.45;;;8.03;86.26
51926;BME280;37952;51.938;15.480;2023-11-21T04:11:48;99015.04;;;8.03;86.20
51926;BME280;37952;51.938;15.480;2023-11-21T04:14:50;99021.08;;;8.01;86.25
51926;BME280;37952;51.938;15.480;2023-11-21T04:17:53;99016.27;;;7.99;86.27
51926;BME280;37952;51.938;15.480;2023-11-21T04:20:55;99019.95;;;8.00;86.28
51926;BME280;37952;51.938;15.480;2023-11-21T04:23:56;99018.95;;;7.98;86.31
51926;BME280;37952;51.938;15.480;2023-11-21T04:26:58;99023.08;;;7.97;86.34
51926;BME280;37952;51.938;15.480;2023-11-21T04:29:59;99027.27;;;7.95;86.37
51926;BME280;37952;51.938;15.480;2023-11-21T04:33:01;99034.88;;;7.93;86.29
51926;BME280;37952;51.938;15.480;2023-11-21T04:36:04;99031.98;;;7.95;86.38
51926;BME280;37952;51.938;15.480;2023-11-21T04:39:06;99036.05;;;7.97;86.28
51926;BME280;37952;51.938;15.480;2023-11-21T04:42:08;99033.49;;;7.98;86.37
51926;BME280;37952;51.938;15.480;2023-11-21T04:45:09;99039.98;;;7.99;86.31
51926;BME280;37952;51.938;15.480;2023-11-21T04:48:12;99045.53;;;7.97;86.39
51926;BME280;37952;51.938;15.480;2023-11-21T04:51:14;99047.24;;;7.95;86.40
51926;BME280;37952;51.938;15.480;2023-11-21T04:54:16;99048.78;;;7.95;86.41
51926;BME280;37952;51.938;15.480;2023-11-21T04:57:17;99051.61;;;7.98;86.38
51926;BME280;37952;51.938;15.480;2023-11-21T05:00:19;99052.80;;;7.99;86.35
51926;BME280;37952;51.938;15.480;2023-11-21T05:03:22;99056.85;;;7.99;86.36
51926;BME280;37952;51.938;15.480;2023-11-21T05:06:25;99057.80;;;7.95;86.49
51926;BME280;37952;51.938;15.480;2023-11-21T05:09:27;99062.20;;;7.94;86.46
51926;BME280;37952;51.938;15.480;2023-11-21T05:12:31;99059.77;;;7.88;86.47
51926;BME280;37952;51.938;15.480;2023-11-21T05:15:39;99067.77;;;7.78;86.54
51926;BME280;37952;51.938;15.480;2023-11-21T05:18:41;99074.05;;;7.63;86.59
51926;BME280;37952;51.938;15.480;2023-11-21T05:21:42;99079.83;;;7.54;86.70
51926;BME280;37952;51.938;15.480;2023-11-21T05:24:44;99083.29;;;7.46;86.81
51926;BME280;37952;51.938;15.480;2023-11-21T05:27:46;99083.56;;;7.41;86.83
51926;BME280;37952;51.938;15.480;2023-11-21T05:30:48;99088.83;;;7.32;87.00
51926;BME280;37952;51.938;15.480;2023-11-21T05:33:55;99089.41;;;7.29;87.07
51926;BME280;37952;51.938;15.480;2023-11-21T05:36:57;99092.02;;;7.29;87.15
51926;BME280;37952;51.938;15.480;2023-11-21T05:39:59;99094.39;;;7.24;87.16
51926;BME280;37952;51.938;15.480;2023-11-21T05:43:06;99098.06;;;7.15;87.18
51926;BME280;37952;51.938;15.480;2023-11-21T05:46:08;99092.59;;;7.15;87.25
51926;BME280;37952;51.938;15.480;2023-11-21T05:49:10;99097.35;;;7.21;87.32
51926;BME280;37952;51.938;15.480;2023-11-21T05:52:12;99099.98;;;7.18;87.24
51926;BME280;37952;51.938;15.480;2023-11-21T05:55:13;99107.45;;;7.16;87.24
51926;BME280;37952;51.938;15.480;2023-11-21T05:58:15;99113.50;;;7.14;87.10
51926;BME280;37952;51.938;15.480;2023-11-21T06:01:17;99122.20;;;7.13;87.12
51926;BME280;37952;51.938;15.480;2023-11-21T06:04:18;99121.03;;;7.11;87.23
51926;BME280;37952;51.938;15.480;2023-11-21T06:07:20;99124.67;;;7.09;87.13
51926;BME280;37952;51.938;15.480;2023-11-21T06:10:22;99129.09;;;7.08;87.16
51926;BME280;37952;51.938;15.480;2023-11-21T06:13:25;99126.69;;;7.04;87.19
51926;BME280;37952;51.938;15.480;2023-11-21T06:16:27;99133.56;;;7.04;87.14
51926;BME280;37952;51.938;15.480;2023-11-21T06:19:29;99140.06;;;7.00;87.10
51926;BME280;37952;51.938;15.480;2023-11-21T06:22:30;99151.97;;;6.94;86.99
51926;BME280;37952;51.938;15.480;2023-11-21T06:25:32;99152.09;;;6.95;87.19
51926;BME280;37952;51.938;15.480;2023-11-21T06:28:37;99153.77;;;6.93;87.03
51926;BME280;37952;51.938;15.480;2023-11-21T06:31:39;99156.69;;;6.94;87.11
51926;BME280;37952;51.938;15.480;2023-11-21T06:34:42;99160.95;;;6.96;87.08
51926;BME280;37952;51.938;15.480;2023-11-21T06:37:44;99171.17;;;6.98;87.00
51926;BME280;37952;51.938;15.480;2023-11-21T06:40:49;99177.77;;;7.03;87.09
51926;BME280;37952;51.938;15.480;2023-11-21T06:43:50;99182.70;;;7.09;87.01
51926;BME280;37952;51.938;15.480;2023-11-21T06:46:52;99189.98;;;7.13;87.06
51926;BME280;37952;51.938;15.480;2023-11-21T06:49:53;99195.67;;;7.12;87.04
51926;BME280;37952;51.938;15.480;2023-11-21T06:52:55;99201.42;;;7.06;86.81
51926;BME280;37952;51.938;15.480;2023-11-21T06:55:56;99209.73;;;7.01;86.92
51926;BME280;37952;51.938;15.480;2023-11-21T06:58:58;99217.02;;;7.00;86.85
51926;BME280;37952;51.938;15.480;2023-11-21T07:02:00;99214.25;;;6.95;86.74
51926;BME280;37952;51.938;15.480;2023-11-21T07:05:01;99222.44;;;6.93;86.78
51926;BME280;37952;51.938;15.480;2023-11-21T07:08:03;99223.03;;;6.92;86.70
51926;BME280;37952;51.938;15.480;2023-11-21T07:11:05;99227.23;;;6.92;86.72
51926;BME280;37952;51.938;15.480;2023-11-21T07:14:07;99233.06;;;6.88;86.70
51926;BME280;37952;51.938;15.480;2023-11-21T07:17:11;99230.87;;;6.86;86.70
51926;BME280;37952;51.938;15.480;2023-11-21T07:20:15;99238.26;;;6.85;86.53
51926;BME280;37952;51.938;15.480;2023-11-21T07:23:18;99247.49;;;6.86;86.60
51926;BME280;37952;51.938;15.480;2023-11-21T07:26:20;99246.35;;;6.85;86.50
51926;BME280;37952;51.938;15.480;2023-11-21T07:29:23;99249.16;;;6.78;86.42
51926;BME280;37952;51.938;15.480;2023-11-21T07:32:26;99252.93;;;6.73;86.44
51926;BME280;37952;51.938;15.480;2023-11-21T07:35:28;99258.69;;;6.70;86.39
51926;BME280;37952;51.938;15.480;2023-11-21T07:38:29;99264.08;;;6.67;86.41
51926;BME280;37952;51.938;15.480;2023-11-21T07:41:31;99270.88;;;6.65;86.43
51926;BME280;37952;51.938;15.480;2023-11-21T07:44:33;99273.16;;;6.64;86.45
51926;BME280;37952;51.938;15.480;2023-11-21T07:47:35;99277.40;;;6.64;86.39
51926;BME280;37952;51.938;15.480;2023-11-21T07:50:37;99278.23;;;6.61;86.39
51926;BME280;37952;51.938;15.480;2023-11-21T07:53:39;99281.14;;;6.59;86.30
51926;BME280;37952;51.938;15.480;2023-11-21T07:56:40;99283.95;;;6.59;86.25
51926;BME280;37952;51.938;15.480;2023-11-21T07:59:42;99287.89;;;6.57;86.28
51926;BME280;37952;51.938;15.480;2023-11-21T08:02:43;99291.80;;;6.49;86.09
51926;BME280;37952;51.938;15.480;2023-11-21T08:05:47;99292.46;;;6.43;86.07
51926;BME280;37952;51.938;15.480;2023-11-21T08:08:48;99297.42;;;6.38;86.08
51926;BME280;37952;51.938;15.480;2023-11-21T08:11:50;99303.05;;;6.34;86.02
51926;BME280;37952;51.938;15.480;2023-11-21T08:14:53;99309.80;;;6.29;85.82
51926;BME280;37952;51.938;15.480;2023-11-21T08:17:54;99312.61;;;6.25;85.95
51926;BME280;37952;51.938;15.480;2023-11-21T08:20:56;99315.58;;;6.25;86.06
51926;BME280;37952;51.938;15.480;2023-11-21T08:23:58;99318.55;;;6.26;85.84
51926;BME280;37952;51.938;15.480;2023-11-21T08:26:59;99323.47;;;6.21;85.85
51926;BME280;37952;51.938;15.480;2023-11-21T08:30:03;99329.66;;;6.20;85.82
51926;BME280;37952;51.938;15.480;2023-11-21T08:33:04;99329.99;;;6.24;85.81
51926;BME280;37952;51.938;15.480;2023-11-21T08:36:08;99336.92;;;6.22;85.64
51926;BME280;37952;51.938;15.480;2023-11-21T08:39:10;99343.63;;;6.14;85.52
51926;BME280;37952;51.938;15.480;2023-11-21T08:42:11;99347.30;;;6.06;85.53
51926;BME280;37952;51.938;15.480;2023-11-21T08:45:14;99353.09;;;6.07;85.43
51926;BME280;37952;51.938;15.480;2023-11-21T08:48:16;99358.17;;;6.06;85.40
51926;BME280;37952;51.938;15.480;2023-11-21T08:51:17;99365.80;;;6.08;85.44
51926;BME280;37952;51.938;15.480;2023-11-21T08:54:19;99368.97;;;6.07;85.41
51926;BME280;37952;51.938;15.480;2023-11-21T08:57:25;99376.50;;;6.07;85.33
51926;BME280;37952;51.938;15.480;2023-11-21T09:00:27;99377.33;;;6.00;85.20
51926;BME280;37952;51.938;15.480;2023-11-21T09:03:28;99379.91;;;5.93;85.04
51926;BME280;37952;51.938;15.480;2023-11-21T09:06:30;99380.88;;;5.91;85.00
51926;BME280;37952;51.938;15.480;2023-11-21T09:09:31;99381.00;;;5.89;84.97
51926;BME280;37952;51.938;15.480;2023-11-21T09:12:33;99382.13;;;5.87;84.92
51926;BME280;37952;51.938;15.480;2023-11-21T09:15:36;99390.83;;;5.81;84.69
51926;BME280;37952;51.938;15.480;2023-11-21T09:18:37;99397.34;;;5.79;84.84
51926;BME280;37952;51.938;15.480;2023-11-21T09:21:39;99395.96;;;5.83;84.91
51926;BME280;37952;51.938;15.480;2023-11-21T09:24:40;99394.84;;;5.84;84.71
51926;BME280;37952;51.938;15.480;2023-11-21T09:27:42;99399.97;;;5.83;84.64
51926;BME280;37952;51.938;15.480;2023-11-21T09:30:43;99401.94;;;5.78;84.69
51926;BME280;37952;51.938;15.480;2023-11-21T09:33:45;99403.48;;;5.75;84.59
51926;BME280;37952;51.938;15.480;2023-11-21T09:36:49;99411.90;;;5.71;84.50
51926;BME280;37952;51.938;15.480;2023-11-21T09:39:51;99414.33;;;5.68;84.39
51926;BME280;37952;51.938;15.480;2023-11-21T09:42:55;99416.66;;;5.66;84.34
51926;BME280;37952;51.938;15.480;2023-11-21T09:46:00;99416.89;;;5.61;84.23
51926;BME280;37952;51.938;15.480;2023-11-21T09:49:03;99419.92;;;5.56;84.23
51926;BME280;37952;51.938;15.480;2023-11-21T09:52:08;99426.10;;;5.51;84.13
51926;BME280;37952;51.938;15.480;2023-11-21T09:55:18;99426.04;;;5.48;84.12
51926;BME280;37952;51.938;15.480;2023-11-21T09:58:21;99430.81;;;5.47;83.93
51926;BME280;37952;51.938;15.480;2023-11-21T10:01:27;99437.10;;;5.43;84.01
51926;BME280;37952;51.938;15.480;2023-11-21T10:04:31;99442.19;;;5.43;83.86
51926;BME280;37952;51.938;15.480;2023-11-21T10:07:34;99445.69;;;5.39;83.87
51926;BME280;37952;51.938;15.480;2023-11-21T10:10:43;99451.20;;;5.36;83.79
51926;BME280;37952;51.938;15.480;2023-11-21T10:13:52;99451.08;;;5.36;83.70
51926;BME280;37952;51.938;15.480;2023-11-21T10:16:56;99450.59;;;5.34;83.63
51926;BME280;37952;51.938;15.480;2023-11-21T10:19:59;99454.23;;;5.31;83.50
51926;BME280;37952;51.938;15.480;2023-11-21T10:23:01;99452.98;;;5.32;83.47
51926;BME280;37952;51.938;15.480;2023-11-21T10:26:04;99451.38;;;5.28;83.41
51926;BME280;37952;51.938;15.480;2023-11-21T10:29:20;99453.14;;;5.20;83.18
51926;BME280;37952;51.938;15.480;2023-11-21T10:32:28;99454.61;;;5.14;83.11
51926;BME280;37952;51.938;15.480;2023-11-21T10:35:42;99450.73;;;5.11;83.12
51926;BME280;37952;51.938;15.480;2023-11-21T10:38:44;99457.89;;;5.11;83.29
51926;BME280;37952;51.938;15.480;2023-11-21T10:41:52;99465.19;;;5.07;82.97
51926;BME280;37952;51.938;15.480;2023-11-21T10:44:54;99468.41;;;5.06;83.20
51926;BME280;37952;51.938;15.480;2023-11-21T10:47:56;99465.36;;;5.03;83.07
51926;BME280;37952;51.938;15.480;2023-11-21T10:50:58;99470.81;;;4.98;82.95
51926;BME280;37952;51.938;15.480;2023-11-21T10:54:00;99480.29;;;4.93;83.00
51926;BME280;37952;51.938;15.480;2023-11-21T10:57:03;99486.11;;;4.92;82.92
51926;BME280;37952;51.938;15.480;2023-11-21T11:00:06;99489.81;;;4.91;83.00
51926;BME280;37952;51.938;15.480;2023-11-21T11:03:08;99488.30;;;4.85;82.76
51926;BME280;37952;51.938;15.480;2023-11-21T11:06:18;99488.98;;;4.81;82.68
51926;BME280;37952;51.938;15.480;2023-11-21T11:09:19;99495.22;;;4.83;82.78
51926;BME280;37952;51.938;15.480;2023-11-21T11:12:23;99503.64;;;4.86;82.81
51926;BME280;37952;51.938;15.480;2023-11-21T11:15:27;99507.59;;;4.87;82.77
51926;BME280;37952;51.938;15.480;2023-11-21T11:18:29;99512.61;;;4.89;82.85
51926;BME280;37952;51.938;15.480;2023-11-21T11:28:44;99517.29;;;4.81;82.42
51926;BME280;37952;51.938;15.480;2023-11-21T11:35:10;99523.52;;;4.73;82.50
51926;BME280;37952;51.938;15.480;2023-11-21T11:38:18;99528.83;;;4.72;82.47
51926;BME280;37952;51.938;15.480;2023-11-21T11:41:27;99530.38;;;4.68;82.40
51926;BME280;37952;51.938;15.480;2023-11-21T11:47:56;99530.41;;;4.63;82.44
51926;BME280;37952;51.938;15.480;2023-11-21T11:51:25;99537.05;;;4.63;82.43
51926;BME280;37952;51.938;15.480;2023-11-21T11:54:35;99546.42;;;4.60;82.27
51926;BME280;37952;51.938;15.480;2023-11-21T11:57:42;99546.75;;;4.55;82.27
51926;BME280;37952;51.938;15.480;2023-11-21T12:00:43;99544.52;;;4.54;82.36
51926;BME280;37952;51.938;15.480;2023-11-21T12:07:56;99546.05;;;4.55;82.31
51926;BME280;37952;51.938;15.480;2023-11-21T12:11:01;99547.96;;;4.51;82.22
51926;BME280;37952;51.938;15.480;2023-11-21T12:14:03;99553.88;;;4.51;82.27
51926;BME280;37952;51.938;15.480;2023-11-21T12:17:06;99556.91;;;4.54;82.41
51926;BME280;37952;51.938;15.480;2023-11-21T12:20:09;99560.79;;;4.53;82.27
51926;BME280;37952;51.938;15.480;2023-11-21T12:23:20;99566.94;;;4.48;82.24
51926;BME280;37952;51.938;15.480;2023-11-21T12:26:24;99572.00;;;4.43;82.28
51926;BME280;37952;51.938;15.480;2023-11-21T12:29:25;99574.52;;;4.41;82.17
51926;BME280;37952;51.938;15.480;2023-11-21T12:32:27;99582.90;;;4.36;82.13
51926;BME280;37952;51.938;15.480;2023-11-21T12:35:31;99585.11;;;4.33;82.14
51926;BME280;37952;51.938;15.480;2023-11-21T12:38:35;99587.02;;;4.34;82.25
51926;BME280;37952;51.938;15.480;2023-11-21T12:41:36;99595.68;;;4.40;82.29
51926;BME280;37952;51.938;15.480;2023-11-21T12:44:38;99596.46;;;4.38;82.22
51926;BME280;37952;51.938;15.480;2023-11-21T12:47:43;99599.09;;;4.28;81.97
51926;BME280;37952;51.938;15.480;2023-11-21T12:50:45;99599.21;;;4.25;82.05
51926;BME280;37952;51.938;15.480;2023-11-21T12:53:50;99601.63;;;4.25;82.18
51926;BME280;37952;51.938;15.480;2023-11-21T12:56:52;99607.53;;;4.26;82.13
51926;BME280;37952;51.938;15.480;2023-11-21T12:59:57;99614.38;;;4.25;82.08
51926;BME280;37952;51.938;15.480;2023-11-21T13:02:59;99617.40;;;4.24;82.13
51926;BME280;37952;51.938;15.480;2023-11-21T13:06:01;99625.63;;;4.23;82.15
51926;BME280;37952;51.938;15.480;2023-11-21T13:09:03;99630.99;;;4.19;82.09
51926;BME280;37952;51.938;15.480;2023-11-21T13:12:06;99634.91;;;4.12;81.89
51926;BME280;37952;51.938;15.480;2023-11-21T13:15:10;99640.85;;;4.07;81.90
51926;BME280;37952;51.938;15.480;2023-11-21T13:18:12;99640.20;;;4.05;81.91
51926;BME280;37952;51.938;15.480;2023-11-21T13:21:14;99639.33;;;4.05;82.01
51926;BME280;37952;51.938;15.480;2023-11-21T13:24:16;99651.95;;;4.03;81.88
51926;BME280;37952;51.938;15.480;2023-11-21T13:27:19;99652.23;;;3.96;81.74
51926;BME280;37952;51.938;15.480;2023-11-21T13:30:21;99657.30;;;3.95;81.81
51926;BME280;37952;51.938;15.480;2023-11-21T13:33:28;99661.69;;;3.89;81.74
51926;BME280;37952;51.938;15.480;2023-11-21T13:36:29;99664.09;;;3.85;81.69
51926;BME280;37952;51.938;15.480;2023-11-21T13:39:34;99673.44;;;3.82;81.83
51926;BME280;37952;51.938;15.480;2023-11-21T13:42:36;99677.77;;;3.77;81.85
51926;BME280;37952;51.938;15.480;2023-11-21T13:45:43;99684.58;;;3.77;81.88
51926;BME280;37952;51.938;15.480;2023-11-21T13:48:47;99693.39;;;3.75;81.88
51926;BME280;37952;51.938;15.480;2023-11-21T13:51:51;99698.67;;;3.72;81.93
51926;BME280;37952;51.938;15.480;2023-11-21T13:54:56;99707.33;;;3.75;81.94
51926;BME280;37952;51.938;15.480;2023-11-21T13:57:57;99714.05;;;3.72;81.92
51926;BME280;37952;51.938;15.480;2023-11-21T14:01:01;99716.91;;;3.64;81.77
51926;BME280;37952;51.938;15.480;2023-11-21T14:04:03;99719.88;;;3.59;81.73
51926;BME280;37952;51.938;15.480;2023-11-21T14:07:17;99723.83;;;3.55;81.66
51926;BME280;37952;51.938;15.480;2023-11-21T14:10:24;99732.52;;;3.50;81.69
51926;BME280;37952;51.938;15.480;2023-11-21T14:13:28;99734.20;;;3.47;81.69
51926;BME280;37952;51.938;15.480;2023-11-21T14:16:29;99747.24;;;3.47;81.70
51926;BME280;37952;51.938;15.480;2023-11-21T14:19:31;99746.12;;;3.44;81.66
51926;BME280;37952;51.938;15.480;2023-11-21T14:22:33;99746.09;;;3.46;81.59
51926;BME280;37952;51.938;15.480;2023-11-21T14:25:36;99743.59;;;3.41;81.52
51926;BME280;37952;51.938;15.480;2023-11-21T14:28:38;99747.88;;;3.38;81.58
51926;BME280;37952;51.938;15.480;2023-11-21T14:31:41;99751.67;;;3.40;81.61
51926;BME280;37952;51.938;15.480;2023-11-21T14:34:42;99756.89;;;3.39;81.50
51926;BME280;37952;51.938;15.480;2023-11-21T14:37:48;99762.02;;;3.31;81.46
51926;BME280;37952;51.938;15.480;2023-11-21T14:40:49;99762.67;;;3.33;81.49
51926;BME280;37952;51.938;15.480;2023-11-21T14:43:51;99764.36;;;3.35;81.57
51926;BME280;37952;51.938;15.480;2023-11-21T14:46:53;99772.64;;;3.37;81.57
51926;BME280;37952;51.938;15.480;2023-11-21T14:50:00;99773.89;;;3.36;81.56
51926;BME280;37952;51.938;15.480;2023-11-21T14:53:20;99779.06;;;3.32;81.45
51926;BME280;37952;51.938;15.480;2023-11-21T14:56:41;99782.35;;;3.28;81.41
51926;BME280;37952;51.938;15.480;2023-11-21T14:59:47;99784.50;;;3.25;81.35
51926;BME280;37952;51.938;15.480;2023-11-21T15:02:59;99787.64;;;3.19;81.33
51926;BME280;37952;51.938;15.480;2023-11-21T15:06:03;99798.48;;;3.17;81.24
51926;BME280;37952;51.938;15.480;2023-11-21T15:09:25;99808.09;;;3.17;81.28
51926;BME280;37952;51.938;15.480;2023-11-21T15:12:33;99812.67;;;3.15;81.14
51926;BME280;37952;51.938;15.480;2023-11-21T15:15:35;99820.91;;;3.07;81.13
51926;BME280;37952;51.938;15.480;2023-11-21T15:18:38;99820.08;;;2.99;81.01
51926;BME280;37952;51.938;15.480;2023-11-21T15:21:40;99823.21;;;2.93;80.98
51926;BME280;37952;51.938;15.480;2023-11-21T15:24:42;99824.88;;;2.90;80.98
51926;BME280;37952;51.938;15.480;2023-11-21T15:27:46;99829.70;;;2.85;80.99
51926;BME280;37952;51.938;15.480;2023-11-21T15:30:50;99830.10;;;2.83;81.07
51926;BME280;37952;51.938;15.480;2023-11-21T15:33:53;99832.09;;;2.80;81.00
51926;BME280;37952;51.938;15.480;2023-11-21T15:36:55;99836.40;;;2.76;81.00
51926;BME280;37952;51.938;15.480;2023-11-21T15:39:56;99836.65;;;2.72;81.01
51926;BME280;37952;51.938;15.480;2023-11-21T15:42:59;99844.92;;;2.69;81.06
51926;BME280;37952;51.938;15.480;2023-11-21T15:46:00;99847.55;;;2.69;81.08
51926;BME280;37952;51.938;15.480;2023-11-21T15:49:08;99851.52;;;2.70;81.13
51926;BME280;37952;51.938;15.480;2023-11-21T15:52:13;99855.27;;;2.72;81.19
51926;BME280;37952;51.938;15.480;2023-11-21T15:55:15;99857.70;;;2.73;81.13
51926;BME280;37952;51.938;15.480;2023-11-21T15:58:18;99868.64;;;2.75;81.23
51926;BME280;37952;51.938;15.480;2023-11-21T16:01:19;99873.11;;;2.76;81.09
51926;BME280;37952;51.938;15.480;2023-11-21T16:04:23;99883.16;;;2.71;81.01
51926;BME280;37952;51.938;15.480;2023-11-21T16:07:28;99886.90;;;2.68;81.10
51926;BME280;37952;51.938;15.480;2023-11-21T16:10:29;99892.70;;;2.66;81.14
51926;BME280;37952;51.938;15.480;2023-11-21T16:13:39;99891.88;;;2.64;81.09
51926;BME280;37952;51.938;15.480;2023-11-21T16:16:42;99896.88;;;2.59;80.86
51926;BME280;37952;51.938;15.480;2023-11-21T16:19:43;99903.64;;;2.53;80.92
51926;BME280;37952;51.938;15.480;2023-11-21T16:22:45;99905.46;;;2.49;80.94
51926;BME280;37952;51.938;15.480;2023-11-21T16:25:47;99910.62;;;2.45;80.85
51926;BME280;37952;51.938;15.480;2023-11-21T16:28:56;99929.24;;;2.44;80.93